Time;durP1;ratioP1;P1;durP2;ratioP2;P2;SDS_P1;SDS_P2;PMS_P1;PMS_P2;Temp;Humidity;BMP_temperature;BMP_pressure;BME280_temperature;BME280_humidity;BME280_pressure;Samples;Min_cycle;Max_cycle;Signal;HPM_P1;HPM_P2
2022/08/15 00:01:06;;;;;;;;;;;;;;;21.75;nan;100221.94;5034170;28;19913;-67
2022/08/15 00:03:36;;;;;;;;;;;;;;;21.70;nan;100217.97;5033709;28;20360;-65
2022/08/15 00:06:06;;;;;;;;;;;;;;;21.65;nan;100212.19;5034148;28;20501;-66
2022/08/15 00:08:32;;;;;;;;;;;;;;;21.61;nan;100214.28;5034029;28;19909;-63
2022/08/15 00:11:32;;;;;;;;;;;;;;;21.59;nan;100210.03;5034069;28;19920;-65
2022/08/15 00:13:59;;;;;;;;;;;;;;;21.56;nan;100208.50;4971937;28;19916;-66
2022/08/15 00:16:25;;;;;;;;;;;;;;;21.52;nan;100199.00;5020372;28;19967;-65
2022/08/15 00:18:50;;;;;;;;;;;;;;;21.52;nan;100196.34;5033554;28;19921;-65
2022/08/15 00:21:17;;;;;;;;;;;;;;;21.50;nan;100192.97;5049153;28;20007;-67
2022/08/15 00:23:42;;;;;;;;;;;;;;;21.48;nan;100194.06;5033611;28;19956;-65
2022/08/15 00:26:08;;;;;;;;;;;;;;;21.45;nan;100202.38;5033505;28;19960;-65
2022/08/15 00:28:33;;;;;;;;;;;;;;;21.48;nan;100210.97;5033601;28;19971;-67
2022/08/15 00:30:59;;;;;;;;;;;;;;;21.51;nan;100207.19;5048796;28;19920;-63
2022/08/15 00:33:25;;;;;;;;;;;;;;;21.54;nan;100209.63;5033399;28;19966;-64
2022/08/15 00:35:50;;;;;;;;;;;;;;;21.60;nan;100212.56;5048419;28;19913;-65
2022/08/15 00:38:20;;;;;;;;;;;;;;;21.65;nan;100215.72;5031979;28;19924;-65
2022/08/15 00:43:32;;;;;;;;;;;;;;;21.72;nan;100210.66;5033531;28;19920;-65
2022/08/15 00:45:58;;;;;;;;;;;;;;;21.70;nan;100199.22;5033220;28;19923;-65
2022/08/15 00:48:41;;;;;;;;;;;;;;;21.68;nan;100198.53;5033349;28;19913;-65
2022/08/15 00:51:11;;;;;;;;;;;;;;;21.65;nan;100199.66;5033181;28;20019;-66
2022/08/15 00:53:37;;;;;;;;;;;;;;;21.62;nan;100186.53;5033450;28;19924;-64
2022/08/15 00:56:02;;;;;;;;;;;;;;;21.56;nan;100189.75;5048358;28;19917;-65
2022/08/15 00:58:27;;;;;;;;;;;;;;;21.52;nan;100184.78;5048722;28;19995;-64
2022/08/15 01:00:53;;;;;;;;;;;;;;;21.47;nan;100187.03;5033134;28;20473;-64
2022/08/15 01:03:21;;;;;;;;;;;;;;;21.41;nan;100190.22;5048547;28;20364;-64
2022/08/15 01:05:47;;;;;;;;;;;;;;;21.37;nan;100191.47;5031692;28;19996;-65
2022/08/15 01:08:14;;;;;;;;;;;;;;;21.37;nan;100183.44;5048170;28;20360;-63
2022/08/15 01:10:40;;;;;;;;;;;;;;;21.36;nan;100187.13;5033040;28;19925;-65
2022/08/15 01:13:05;;;;;;;;;;;;;;;21.37;nan;100181.59;5048323;28;19920;-64
2022/08/15 01:15:31;;;;;;;;;;;;;;;21.39;nan;100184.16;5048168;28;19920;-64
2022/08/15 01:17:56;;;;;;;;;;;;;;;21.41;nan;100176.84;5032791;28;19982;-65
2022/08/15 01:20:23;;;;;;;;;;;;;;;21.45;nan;100178.28;5048232;28;19909;-64
2022/08/15 01:22:56;;;;;;;;;;;;;;;21.50;nan;100181.41;5047917;28;19948;-65
2022/08/15 01:25:36;;;;;;;;;;;;;;;21.54;nan;100175.63;5031875;28;19913;-65
2022/08/15 01:28:01;;;;;;;;;;;;;;;21.60;nan;100185.78;5032466;28;20284;-65
2022/08/15 01:30:28;;;;;;;;;;;;;;;21.65;nan;100180.91;5032791;28;19913;-64
2022/08/15 01:32:54;;;;;;;;;;;;;;;21.70;nan;100180.47;5032606;28;20363;-64
2022/08/15 01:35:19;;;;;;;;;;;;;;;21.74;nan;100181.91;5032533;28;19992;-64
2022/08/15 01:37:44;;;;;;;;;;;;;;;21.80;nan;100178.69;5032652;28;19917;-65
2022/08/15 01:40:28;;;;;;;;;;;;;;;21.81;nan;100178.53;5032514;28;19913;-65
2022/08/15 01:42:54;;;;;;;;;;;;;;;21.84;nan;100182.78;5033039;28;19952;-64
2022/08/15 01:45:21;;;;;;;;;;;;;;;21.85;nan;100177.28;5048332;28;20292;-65
2022/08/15 01:47:52;;;;;;;;;;;;;;;21.88;nan;100181.56;5031233;28;20008;-64
2022/08/15 01:50:28;;;;;;;;;;;;;;;21.88;nan;100178.88;5049326;28;20419;-64
2022/08/15 01:53:08;;;;;;;;;;;;;;;21.86;nan;100183.50;5032574;28;19964;-65
2022/08/15 01:55:54;;;;;;;;;;;;;;;21.83;nan;100194.50;5047699;28;19917;-63
2022/08/15 01:58:19;;;;;;;;;;;;;;;21.80;nan;100181.38;5021215;28;19913;-64
2022/08/15 02:00:49;;;;;;;;;;;;;;;21.77;nan;100185.13;5047937;28;19920;-64
2022/08/15 02:03:14;;;;;;;;;;;;;;;21.75;nan;100181.75;5030940;28;20368;-64
2022/08/15 02:05:39;;;;;;;;;;;;;;;21.71;nan;100180.34;5032472;28;19956;-64
2022/08/15 02:08:04;;;;;;;;;;;;;;;21.65;nan;100172.00;5032878;28;20011;-64
2022/08/15 02:10:29;;;;;;;;;;;;;;;21.58;nan;100174.38;5032131;28;19971;-64
2022/08/15 02:12:55;;;;;;;;;;;;;;;21.55;nan;100174.66;5047474;28;20151;-64
2022/08/15 02:15:20;;;;;;;;;;;;;;;21.54;nan;100172.94;5032268;28;19964;-64
2022/08/15 02:17:46;;;;;;;;;;;;;;;21.58;nan;100174.38;5033027;28;19959;-65
2022/08/15 02:20:12;;;;;;;;;;;;;;;21.61;nan;100179.47;5032057;28;19975;-65
2022/08/15 02:22:37;;;;;;;;;;;;;;;21.67;nan;100180.75;5030871;28;20409;-64
2022/08/15 02:25:04;;;;;;;;;;;;;;;21.72;nan;100190.06;5032142;28;19979;-65
2022/08/15 02:27:31;;;;;;;;;;;;;;;21.78;nan;100202.06;5047328;28;19909;-64
2022/08/15 02:29:56;;;;;;;;;;;;;;;21.84;nan;100202.38;5047572;28;19913;-65
2022/08/15 02:32:22;;;;;;;;;;;;;;;21.90;nan;100206.38;5049123;28;20184;-64
2022/08/15 02:34:47;;;;;;;;;;;;;;;21.95;nan;100211.34;5032138;28;19940;-64
2022/08/15 02:37:18;;;;;;;;;;;;;;;21.98;nan;100221.78;5032724;28;19913;-64
2022/08/15 02:39:43;;;;;;;;;;;;;;;22.01;nan;100216.16;5036096;28;19913;-64
2022/08/15 02:42:08;;;;;;;;;;;;;;;22.00;nan;100201.91;5035447;28;19945;-64
2022/08/15 02:44:34;;;;;;;;;;;;;;;21.99;nan;100196.66;5036048;28;19917;-63
2022/08/15 02:47:00;;;;;;;;;;;;;;;21.96;nan;100189.75;5035603;28;19924;-64
2022/08/15 02:49:26;;;;;;;;;;;;;;;21.97;nan;100185.25;5035537;28;20390;-66
2022/08/15 02:51:51;;;;;;;;;;;;;;;21.99;nan;100185.94;5035291;28;19921;-64
2022/08/15 02:54:18;;;;;;;;;;;;;;;22.00;nan;100187.66;5035709;28;19925;-65
2022/08/15 02:56:44;;;;;;;;;;;;;;;21.98;nan;100187.78;5035286;28;19913;-64
2022/08/15 02:59:10;;;;;;;;;;;;;;;21.97;nan;100199.50;5035365;28;19960;-64
2022/08/15 03:01:40;;;;;;;;;;;;;;;21.98;nan;100205.72;5050726;28;20391;-64
2022/08/15 03:04:06;;;;;;;;;;;;;;;21.98;nan;100209.22;5035272;28;20047;-64
2022/08/15 03:06:32;;;;;;;;;;;;;;;21.96;nan;100203.16;5033935;28;19913;-64
2022/08/15 03:09:00;;;;;;;;;;;;;;;21.97;nan;100193.28;5035051;28;20435;-63
2022/08/15 03:11:25;;;;;;;;;;;;;;;21.95;nan;100189.91;5050363;28;19913;-63
2022/08/15 03:13:51;;;;;;;;;;;;;;;21.95;nan;100179.19;5035192;28;19917;-64
2022/08/15 03:16:16;;;;;;;;;;;;;;;21.93;nan;100175.78;5034931;28;20446;-64
2022/08/15 03:18:42;;;;;;;;;;;;;;;21.87;nan;100179.81;5035035;28;20425;-63
2022/08/15 03:21:08;;;;;;;;;;;;;;;21.86;nan;100175.47;5050336;28;20372;-66
2022/08/15 03:23:34;;;;;;;;;;;;;;;21.85;nan;100179.13;5034900;28;20303;-65
2022/08/15 03:26:00;;;;;;;;;;;;;;;21.83;nan;100194.50;5034860;28;19909;-65
2022/08/15 03:28:28;;;;;;;;;;;;;;;21.78;nan;100191.34;5034986;28;19917;-65
2022/08/15 03:30:54;;;;;;;;;;;;;;;21.75;nan;100186.25;5049952;28;20391;-63
2022/08/15 03:33:19;;;;;;;;;;;;;;;21.69;nan;100187.66;5050527;28;19963;-64
2022/08/15 03:35:45;;;;;;;;;;;;;;;21.65;nan;100188.94;5035848;28;19948;-63
2022/08/15 03:38:11;;;;;;;;;;;;;;;21.64;nan;100178.34;5034472;28;20429;-65
2022/08/15 03:40:37;;;;;;;;;;;;;;;21.60;nan;100191.16;5034677;28;19917;-64
2022/08/15 03:43:04;;;;;;;;;;;;;;;21.58;nan;100185.09;5034665;28;19971;-64
2022/08/15 03:45:30;;;;;;;;;;;;;;;21.58;nan;100178.88;5049932;28;19913;-64
2022/08/15 03:47:55;;;;;;;;;;;;;;;21.56;nan;100175.50;5033534;28;19912;-64
2022/08/15 03:50:21;;;;;;;;;;;;;;;21.55;nan;100185.34;5034088;28;19917;-64
2022/08/15 03:52:54;;;;;;;;;;;;;;;21.55;nan;100180.00;5033989;28;20095;-64
2022/08/15 03:55:19;;;;;;;;;;;;;;;21.59;nan;100169.88;5034987;28;19920;-62
2022/08/15 03:57:45;;;;;;;;;;;;;;;21.59;nan;100175.22;5034117;28;20292;-64
2022/08/15 04:00:11;;;;;;;;;;;;;;;21.59;nan;100167.19;5034322;28;19913;-64
2022/08/15 04:02:37;;;;;;;;;;;;;;;21.58;nan;100163.66;5034141;28;19992;-64
2022/08/15 04:05:02;;;;;;;;;;;;;;;21.58;nan;100169.03;5034020;28;20261;-64
2022/08/15 04:07:28;;;;;;;;;;;;;;;21.56;nan;100173.69;5049351;28;19952;-65
2022/08/15 04:09:54;;;;;;;;;;;;;;;21.57;nan;100183.38;5034132;28;19913;-63
2022/08/15 04:12:29;;;;;;;;;;;;;;;21.61;nan;100208.06;5049443;28;20390;-63
2022/08/15 04:14:54;;;;;;;;;;;;;;;21.64;nan;100215.84;5033827;28;19921;-63
2022/08/15 04:17:19;;;;;;;;;;;;;;;21.66;nan;100204.00;5033814;28;20269;-64
2022/08/15 04:19:45;;;;;;;;;;;;;;;21.69;nan;100192.16;5032463;28;20396;-64
2022/08/15 04:22:10;;;;;;;;;;;;;;;21.68;nan;100198.53;5033991;28;19993;-66
2022/08/15 04:24:35;;;;;;;;;;;;;;;21.68;nan;100202.06;5032565;28;20291;-65
2022/08/15 04:27:01;;;;;;;;;;;;;;;21.68;nan;100206.56;5033776;28;19913;-64
2022/08/15 04:29:26;;;;;;;;;;;;;;;21.67;nan;100195.00;5032356;28;19953;-65
2022/08/15 04:31:53;;;;;;;;;;;;;;;21.67;nan;100203.03;5033670;28;19913;-64
2022/08/15 04:34:18;;;;;;;;;;;;;;;21.66;nan;100201.31;5033523;28;19952;-64
2022/08/15 04:36:46;;;;;;;;;;;;;;;21.66;nan;100206.69;5033702;28;19967;-65
2022/08/15 04:39:11;;;;;;;;;;;;;;;21.67;nan;100215.56;5033596;28;19921;-64
2022/08/15 04:41:36;;;;;;;;;;;;;;;21.69;nan;100218.94;5033547;28;19917;-65
2022/08/15 04:44:03;;;;;;;;;;;;;;;21.68;nan;100222.63;5032064;28;20289;-65
2022/08/15 04:46:28;;;;;;;;;;;;;;;21.66;nan;100214.72;5033342;28;20011;-63
2022/08/15 04:48:54;;;;;;;;;;;;;;;21.64;nan;100213.16;5032881;28;20415;-64
2022/08/15 04:51:19;;;;;;;;;;;;;;;21.62;nan;100213.31;5032670;28;19921;-64
2022/08/15 04:53:46;;;;;;;;;;;;;;;21.61;nan;100219.63;5033003;28;20051;-64
2022/08/15 04:56:11;;;;;;;;;;;;;;;21.59;nan;100224.28;5033024;28;19932;-64
2022/08/15 04:58:37;;;;;;;;;;;;;;;21.55;nan;100214.81;5031834;28;19917;-63
2022/08/15 05:01:08;;;;;;;;;;;;;;;21.52;nan;100211.56;5032701;28;20027;-64
2022/08/15 05:03:33;;;;;;;;;;;;;;;21.50;nan;100210.84;5032630;28;19912;-64
2022/08/15 05:06:03;;;;;;;;;;;;;;;21.48;nan;100213.66;5033201;28;19967;-65
2022/08/15 05:08:28;;;;;;;;;;;;;;;21.50;nan;100213.53;5033025;28;19960;-64
2022/08/15 05:11:00;;;;;;;;;;;;;;;21.50;nan;100208.16;5031696;28;19943;-62
2022/08/15 05:13:27;;;;;;;;;;;;;;;21.49;nan;100210.00;5048084;28;19919;-65
2022/08/15 05:15:53;;;;;;;;;;;;;;;21.47;nan;100211.97;5032709;28;19913;-63
2022/08/15 05:18:18;;;;;;;;;;;;;;;21.48;nan;100213.66;5031327;28;19920;-65
2022/08/15 05:20:44;;;;;;;;;;;;;;;21.48;nan;100205.63;5032944;28;19921;-63
2022/08/15 05:23:10;;;;;;;;;;;;;;;21.47;nan;100216.47;5032715;28;19921;-63
2022/08/15 05:25:37;;;;;;;;;;;;;;;21.46;nan;100223.66;5047932;28;20384;-64
2022/08/15 05:28:03;;;;;;;;;;;;;;;21.47;nan;100224.50;5032495;28;20036;-64
2022/08/15 05:30:28;;;;;;;;;;;;;;;21.45;nan;100221.97;5032601;28;20388;-63
2022/08/15 05:33:20;;;;;;;;;;;;;;;21.48;nan;100226.22;5032672;28;20355;-64
2022/08/15 05:35:46;;;;;;;;;;;;;;;21.49;nan;100226.06;5029396;28;19913;-64
2022/08/15 05:38:21;;;;;;;;;;;;;;;21.52;nan;100217.75;5032737;28;20376;-64
2022/08/15 05:40:51;;;;;;;;;;;;;;;21.52;nan;100230.28;5033279;28;20050;-64
2022/08/15 05:43:19;;;;;;;;;;;;;;;21.53;nan;100230.19;5047437;28;20032;-65
2022/08/15 05:45:49;;;;;;;;;;;;;;;21.57;nan;100236.13;5048036;28;19917;-64
2022/08/15 05:48:15;;;;;;;;;;;;;;;21.61;nan;100246.41;5032252;28;19923;-65
2022/08/15 05:50:48;;;;;;;;;;;;;;;21.68;nan;100249.41;5032892;28;19921;-63
2022/08/15 05:53:17;;;;;;;;;;;;;;;21.74;nan;100254.25;5047697;28;19971;-63
2022/08/15 05:55:45;;;;;;;;;;;;;;;21.82;nan;100247.22;5047597;28;19982;-64
2022/08/15 05:58:19;;;;;;;;;;;;;;;21.92;nan;100254.50;5032510;28;19913;-63
2022/08/15 06:00:47;;;;;;;;;;;;;;;22.02;nan;100248.16;5032079;28;19913;-64
2022/08/15 06:03:14;;;;;;;;;;;;;;;22.14;nan;100243.53;5047537;28;19913;-65
2022/08/15 06:05:40;;;;;;;;;;;;;;;22.20;nan;100234.94;5047682;28;19920;-63
2022/08/15 06:08:07;;;;;;;;;;;;;;;22.24;nan;100239.06;5030725;28;20028;-65
2022/08/15 06:10:37;;;;;;;;;;;;;;;22.27;nan;100239.59;5047300;28;19959;-65
2022/08/15 06:13:20;;;;;;;;;;;;;;;22.26;nan;100242.44;5051317;28;19912;-65
2022/08/15 06:15:53;;;;;;;;;;;;;;;22.28;nan;100232.41;5051593;28;19948;-65
2022/08/15 06:18:18;;;;;;;;;;;;;;;22.28;nan;100227.06;5036180;28;19913;-64
2022/08/15 06:21:22;;;;;;;;;;;;;;;22.26;nan;100221.00;5051651;28;20024;-66
2022/08/15 06:23:54;;;;;;;;;;;;;;;22.07;nan;100196.81;4974742;28;20404;-63
2022/08/15 06:26:27;;;;;;;;;;;;;;;22.29;nan;100221.56;4958742;28;20199;-64
2022/08/15 06:29:01;;;;;;;;;;;;;;;22.32;nan;100228.47;5008793;28;19991;-65
2022/08/15 06:31:37;;;;;;;;;;;;;;;22.32;nan;100229.34;5035768;28;20269;-66
2022/08/15 06:34:17;;;;;;;;;;;;;;;22.39;nan;100238.50;5035883;28;20299;-64
2022/08/15 06:36:44;;;;;;;;;;;;;;;22.41;nan;100230.31;5035852;28;19913;-66
2022/08/15 06:39:12;;;;;;;;;;;;;;;22.45;nan;100229.03;5035705;28;19913;-65
2022/08/15 06:41:41;;;;;;;;;;;;;;;22.50;nan;100242.06;5035517;28;19916;-64
2022/08/15 06:44:06;;;;;;;;;;;;;;;22.55;nan;100235.28;5051137;28;19913;-65
2022/08/15 06:46:35;;;;;;;;;;;;;;;22.63;nan;100238.09;5035735;28;19920;-63
2022/08/15 06:49:07;;;;;;;;;;;;;;;22.67;nan;100255.66;5050648;28;19932;-64
2022/08/15 06:51:34;;;;;;;;;;;;;;;22.71;nan;100250.81;5050840;28;20002;-64
2022/08/15 06:53:59;;;;;;;;;;;;;;;22.71;nan;100240.94;5050511;28;19917;-67
2022/08/15 06:56:24;;;;;;;;;;;;;;;22.75;nan;100237.00;5034199;28;19920;-65
2022/08/15 06:59:11;;;;;;;;;;;;;;;22.80;nan;100242.78;5035598;28;19917;-65
2022/08/15 07:01:58;;;;;;;;;;;;;;;22.86;nan;100228.81;5050747;28;19912;-63
2022/08/15 07:04:33;;;;;;;;;;;;;;;22.91;nan;100237.25;5050310;28;19943;-64
2022/08/15 07:07:08;;;;;;;;;;;;;;;22.92;nan;100241.66;5050396;28;20498;-63
2022/08/15 07:09:33;;;;;;;;;;;;;;;22.84;nan;100235.31;5050097;28;19920;-66
2022/08/15 07:12:05;;;;;;;;;;;;;;;22.76;nan;100252.13;5035132;28;20331;-63
2022/08/15 07:14:49;;;;;;;;;;;;;;;22.72;nan;100250.69;5034985;28;19971;-64
2022/08/15 07:17:15;;;;;;;;;;;;;;;22.66;nan;100248.59;5034596;28;20368;-63
2022/08/15 07:19:41;;;;;;;;;;;;;;;22.61;nan;100244.59;5035048;28;20410;-66
2022/08/15 07:22:07;;;;;;;;;;;;;;;22.61;nan;100253.50;5049673;28;19963;-65
2022/08/15 07:24:33;;;;;;;;;;;;;;;22.60;nan;100238.38;5033632;28;19925;-66
2022/08/15 07:27:04;;;;;;;;;;;;;;;22.62;nan;100257.84;5037057;28;20076;-65
2022/08/15 07:29:32;;;;;;;;;;;;;;;22.63;nan;100234.56;5050601;28;20018;-65
2022/08/15 07:32:02;;;;;;;;;;;;;;;22.67;nan;100238.69;5049319;28;19913;-66
2022/08/15 07:34:27;;;;;;;;;;;;;;;22.73;nan;100246.19;5033539;28;19967;-63
2022/08/15 07:37:00;;;;;;;;;;;;;;;22.72;nan;100239.97;5033272;28;19917;-64
2022/08/15 07:39:25;;;;;;;;;;;;;;;22.78;nan;100238.56;5034701;28;20264;-65
2022/08/15 07:41:50;;;;;;;;;;;;;;;22.78;nan;100226.00;5033963;28;20007;-66
2022/08/15 07:44:19;;;;;;;;;;;;;;;22.83;nan;100221.03;5034415;28;19964;-64
2022/08/15 07:46:58;;;;;;;;;;;;;;;22.87;nan;100230.50;5041483;28;20015;-65
2022/08/15 07:49:31;;;;;;;;;;;;;;;22.86;nan;100215.38;5054414;28;19916;-59
2022/08/15 07:51:58;;;;;;;;;;;;;;;22.89;nan;100212.41;5054264;28;19920;-59
2022/08/15 07:54:36;;;;;;;;;;;;;;;22.88;nan;100218.75;5054646;28;19961;-59
2022/08/15 07:57:02;;;;;;;;;;;;;;;22.89;nan;100216.94;5053544;28;19967;-60
2022/08/15 07:59:33;;;;;;;;;;;;;;;22.91;nan;100215.78;5054335;28;19932;-58
2022/08/15 08:02:04;;;;;;;;;;;;;;;22.84;nan;100206.63;5053047;28;20268;-61
2022/08/15 08:04:30;;;;;;;;;;;;;;;22.87;nan;100201.00;5053633;28;20437;-55
2022/08/15 08:06:57;;;;;;;;;;;;;;;22.83;nan;100210.31;5053771;28;19912;-58
2022/08/15 08:09:29;;;;;;;;;;;;;;;22.88;nan;100208.03;5054028;28;19985;-59
2022/08/15 08:12:07;;;;;;;;;;;;;;;22.93;nan;100208.47;5035898;28;19912;-57
2022/08/15 08:14:34;;;;;;;;;;;;;;;22.97;nan;100209.84;5053790;28;19912;-61
2022/08/15 08:17:03;;;;;;;;;;;;;;;22.94;nan;100206.63;5053562;28;19948;-59
2022/08/15 08:19:33;;;;;;;;;;;;;;;22.98;nan;100211.56;5052500;28;19916;-58
2022/08/15 08:22:37;;;;;;;;;;;;;;;23.02;nan;100220.19;5052184;28;20390;-58
2022/08/15 08:25:14;;;;;;;;;;;;;;;23.13;nan;100214.66;4994708;28;19917;-59
2022/08/15 08:27:43;;;;;;;;;;;;;;;23.25;nan;100226.91;5011498;28;20431;-54
2022/08/15 08:30:12;;;;;;;;;;;;;;;23.34;nan;100238.63;5034888;28;19916;-58
2022/08/15 08:32:41;;;;;;;;;;;;;;;23.39;nan;100237.22;5052221;28;19913;-60
2022/08/15 08:35:09;;;;;;;;;;;;;;;23.40;nan;100236.25;5052899;28;20190;-58
2022/08/15 08:37:53;;;;;;;;;;;;;;;23.35;nan;100234.94;5053197;28;19935;-61
2022/08/15 08:43:38;;;;;;;;;;;;;;;23.14;nan;100236.97;5053603;28;19951;-57
2022/08/15 08:46:10;;;;;;;;;;;;;;;23.05;nan;100241.38;5053684;28;19932;-59
2022/08/15 08:48:53;;;;;;;;;;;;;;;22.99;nan;100233.88;5053149;28;19935;-59
2022/08/15 08:51:38;;;;;;;;;;;;;;;22.96;nan;100235.03;5053002;28;19921;-59
2022/08/15 08:54:10;;;;;;;;;;;;;;;22.94;nan;100236.16;5051762;28;19917;-58
2022/08/15 08:56:40;;;;;;;;;;;;;;;22.91;nan;100242.63;5052956;28;19917;-60
2022/08/15 08:59:23;;;;;;;;;;;;;;;22.93;nan;100251.41;5034990;28;19912;-60
2022/08/15 09:01:56;;;;;;;;;;;;;;;22.89;nan;100235.72;5053119;28;19909;-59
2022/08/15 09:04:24;;;;;;;;;;;;;;;22.86;nan;100244.91;5051915;28;19935;-58
2022/08/15 09:06:49;;;;;;;;;;;;;;;22.88;nan;100242.91;5052865;28;19912;-54
2022/08/15 09:09:14;;;;;;;;;;;;;;;22.91;nan;100239.94;5051217;28;19990;-57
2022/08/15 09:11:43;;;;;;;;;;;;;;;23.04;nan;100252.22;5052622;28;20364;-60
2022/08/15 09:14:14;;;;;;;;;;;;;;;23.13;nan;100238.81;5051710;28;19908;-60
2022/08/15 09:16:40;;;;;;;;;;;;;;;23.32;nan;100245.97;5052897;28;19969;-61
2022/08/15 09:19:08;;;;;;;;;;;;;;;23.63;nan;100252.00;5052679;28;19913;-59
2022/08/15 09:21:33;;;;;;;;;;;;;;;24.08;nan;100255.59;5052940;28;20007;-59
2022/08/15 09:23:59;;;;;;;;;;;;;;;24.70;nan;100256.63;5051252;28;20183;-61
2022/08/15 09:26:38;;;;;;;;;;;;;;;25.36;nan;100270.53;5051157;28;19978;-60
2022/08/15 09:29:08;;;;;;;;;;;;;;;25.90;nan;100272.03;5052528;28;19959;-61
2022/08/15 09:31:34;;;;;;;;;;;;;;;26.11;nan;100267.09;5051446;28;19956;-59
2022/08/15 09:34:03;;;;;;;;;;;;;;;26.26;nan;100277.13;5034465;28;20272;-60
2022/08/15 09:36:46;;;;;;;;;;;;;;;26.17;nan;100282.66;5052421;28;20015;-60
2022/08/15 09:39:29;;;;;;;;;;;;;;;26.07;nan;100290.00;5051384;28;19940;-61
2022/08/15 09:41:55;;;;;;;;;;;;;;;25.98;nan;100286.41;5052438;28;19920;-61
2022/08/15 09:44:26;;;;;;;;;;;;;;;25.86;nan;100287.69;5052555;28;19916;-60
2022/08/15 09:47:10;;;;;;;;;;;;;;;25.77;nan;100279.75;5052498;28;19912;-60
2022/08/15 09:49:45;;;;;;;;;;;;;;;25.73;nan;100295.38;5056684;28;19920;-61
2022/08/15 09:52:10;;;;;;;;;;;;;;;25.67;nan;100286.09;5056506;28;20292;-60
2022/08/15 09:54:58;;;;;;;;;;;;;;;25.57;nan;100279.94;5056160;28;19917;-60
2022/08/15 09:57:36;;;;;;;;;;;;;;;25.46;nan;100279.34;5056457;28;19962;-60
2022/08/15 10:00:16;;;;;;;;;;;;;;;25.36;nan;100274.06;5055250;28;19962;-60
2022/08/15 10:02:43;;;;;;;;;;;;;;;25.40;nan;100288.06;5056485;28;19999;-59
2022/08/15 10:05:14;;;;;;;;;;;;;;;25.42;nan;100297.69;5054927;28;19923;-60
2022/08/15 10:07:45;;;;;;;;;;;;;;;25.47;nan;100299.91;5056005;28;19919;-61
2022/08/15 10:10:21;;;;;;;;;;;;;;;25.61;nan;100294.81;5056142;28;19935;-63
2022/08/15 10:13:05;;;;;;;;;;;;;;;25.69;nan;100302.94;5055219;28;19916;-60
2022/08/15 10:15:35;;;;;;;;;;;;;;;25.66;nan;100300.56;5055917;28;20286;-62
2022/08/15 10:18:08;;;;;;;;;;;;;;;25.60;nan;100311.97;5054654;28;20390;-61
2022/08/15 10:20:33;;;;;;;;;;;;;;;25.60;nan;100311.97;5055051;28;19925;-61
2022/08/15 10:22:59;;;;;;;;;;;;;;;25.55;nan;100299.97;5055767;28;19920;-60
2022/08/15 10:25:26;;;;;;;;;;;;;;;25.65;nan;100298.03;5056219;28;19913;-60
2022/08/15 10:28:01;;;;;;;;;;;;;;;25.68;nan;100303.97;5037920;28;20003;-61
2022/08/15 10:30:30;;;;;;;;;;;;;;;25.81;nan;100303.50;5055237;28;19948;-60
2022/08/15 10:32:56;;;;;;;;;;;;;;;26.00;nan;100305.16;5054306;28;19935;-61
2022/08/15 10:35:47;;;;;;;;;;;;;;;26.07;nan;100303.47;5055483;28;19913;-62
2022/08/15 10:38:15;;;;;;;;;;;;;;;26.26;nan;100309.50;5053014;28;20306;-61
2022/08/15 10:40:49;;;;;;;;;;;;;;;26.45;nan;100312.94;5037636;28;19920;-61
2022/08/15 10:43:27;;;;;;;;;;;;;;;26.60;nan;100312.13;5037441;28;20283;-62
2022/08/15 10:45:59;;;;;;;;;;;;;;;26.68;nan;100311.31;5054494;28;19913;-62
2022/08/15 10:48:43;;;;;;;;;;;;;;;26.68;nan;100317.56;5054398;28;19913;-62
2022/08/15 10:51:08;;;;;;;;;;;;;;;26.59;nan;100306.94;5055368;28;19921;-61
2022/08/15 10:53:47;;;;;;;;;;;;;;;26.52;nan;100293.22;5054994;28;20016;-59
2022/08/15 10:56:14;;;;;;;;;;;;;;;26.66;nan;100289.03;5054872;28;20276;-62
2022/08/15 10:58:39;;;;;;;;;;;;;;;26.95;nan;100296.69;5054947;28;19913;-62
2022/08/15 11:01:07;;;;;;;;;;;;;;;27.45;nan;100305.53;5055135;28;19950;-62
2022/08/15 11:03:40;;;;;;;;;;;;;;;28.47;nan;100319.94;5055297;28;19920;-64
2022/08/15 11:06:14;;;;;;;;;;;;;;;29.28;nan;100315.88;5037263;28;20354;-62
2022/08/15 11:08:48;;;;;;;;;;;;;;;29.25;nan;100332.50;5055454;28;19919;-61
2022/08/15 11:11:13;;;;;;;;;;;;;;;28.86;nan;100327.19;5053718;28;20355;-64
2022/08/15 11:13:40;;;;;;;;;;;;;;;28.56;nan;100328.00;5053879;28;19916;-59
2022/08/15 11:16:16;;;;;;;;;;;;;;;28.16;nan;100321.78;5053374;28;20011;-59
2022/08/15 11:18:51;;;;;;;;;;;;;;;27.78;nan;100328.78;5053241;28;19917;-59
2022/08/15 11:21:35;;;;;;;;;;;;;;;27.47;nan;100321.56;5053634;28;20490;-59
2022/08/15 11:24:07;;;;;;;;;;;;;;;27.28;nan;100325.44;5055294;28;19951;-60
2022/08/15 11:26:33;;;;;;;;;;;;;;;27.18;nan;100327.44;5053646;28;19912;-59
2022/08/15 11:29:15;;;;;;;;;;;;;;;26.97;nan;100325.22;5054662;28;19915;-60
2022/08/15 11:31:46;;;;;;;;;;;;;;;26.93;nan;100328.44;5054476;28;19917;-59
2022/08/15 11:34:23;;;;;;;;;;;;;;;26.87;nan;100323.69;5054651;28;20445;-59
2022/08/15 11:36:49;;;;;;;;;;;;;;;26.97;nan;100327.09;5054519;28;19919;-58
2022/08/15 11:39:16;;;;;;;;;;;;;;;27.00;nan;100332.19;5054552;28;20307;-60
2022/08/15 11:41:43;;;;;;;;;;;;;;;26.84;nan;100335.69;5053065;28;19967;-62
2022/08/15 11:44:09;;;;;;;;;;;;;;;26.67;nan;100332.09;5053377;28;19913;-61
2022/08/15 11:46:34;;;;;;;;;;;;;;;26.64;nan;100326.16;5036813;28;19913;-59
2022/08/15 11:49:04;;;;;;;;;;;;;;;26.60;nan;100330.19;5053144;28;19939;-58
2022/08/15 11:51:33;;;;;;;;;;;;;;;26.52;nan;100336.41;5053083;28;19957;-60
2022/08/15 11:54:10;;;;;;;;;;;;;;;26.39;nan;100332.47;5054370;28;19939;-59
2022/08/15 11:56:44;;;;;;;;;;;;;;;26.32;nan;100331.44;5054281;28;20460;-60
2022/08/15 11:59:21;;;;;;;;;;;;;;;26.22;nan;100339.66;5054199;28;20033;-59
2022/08/15 12:02:05;;;;;;;;;;;;;;;26.10;nan;100341.75;5052956;28;19912;-59
2022/08/15 12:04:31;;;;;;;;;;;;;;;26.02;nan;100336.34;5054124;28;19959;-58
2022/08/15 12:06:57;;;;;;;;;;;;;;;25.93;nan;100345.38;5035881;28;19991;-60
2022/08/15 12:09:30;;;;;;;;;;;;;;;25.85;nan;100342.66;5035562;28;19966;-58
2022/08/15 12:11:55;;;;;;;;;;;;;;;25.71;nan;100345.94;5052864;28;19952;-59
2022/08/15 12:14:24;;;;;;;;;;;;;;;25.63;nan;100338.63;5052667;28;19963;-58
2022/08/15 12:17:00;;;;;;;;;;;;;;;25.52;nan;100351.50;5052573;28;19920;-61
2022/08/15 12:19:29;;;;;;;;;;;;;;;25.54;nan;100330.66;5054039;28;19912;-59
2022/08/15 12:21:55;;;;;;;;;;;;;;;25.55;nan;100341.25;5053950;28;19920;-60
2022/08/15 12:24:21;;;;;;;;;;;;;;;25.61;nan;100337.09;5053913;28;20383;-59
2022/08/15 12:26:46;;;;;;;;;;;;;;;25.76;nan;100337.34;5053884;28;20031;-61
2022/08/15 12:29:11;;;;;;;;;;;;;;;25.74;nan;100335.66;5053674;28;20336;-60
2022/08/15 12:31:38;;;;;;;;;;;;;;;25.85;nan;100344.50;5053645;28;20000;-60
2022/08/15 12:34:11;;;;;;;;;;;;;;;25.98;nan;100339.50;5053680;28;19931;-60
2022/08/15 12:36:37;;;;;;;;;;;;;;;26.16;nan;100337.59;5052259;28;19913;-60
2022/08/15 12:39:03;;;;;;;;;;;;;;;26.50;nan;100345.69;5052400;28;19923;-60
2022/08/15 12:41:28;;;;;;;;;;;;;;;26.84;nan;100351.88;5052349;28;19966;-61
2022/08/15 12:43:54;;;;;;;;;;;;;;;27.09;nan;100355.47;5053332;28;19924;-60
2022/08/15 12:46:19;;;;;;;;;;;;;;;27.31;nan;100361.06;5052058;28;19912;-60
2022/08/15 12:48:46;;;;;;;;;;;;;;;27.43;nan;100353.50;5053433;28;20160;-59
2022/08/15 12:51:12;;;;;;;;;;;;;;;27.49;nan;100350.13;5051939;28;19975;-60
2022/08/15 12:53:40;;;;;;;;;;;;;;;27.66;nan;100359.06;5052303;28;20376;-59
2022/08/15 12:56:07;;;;;;;;;;;;;;;27.64;nan;100344.88;5053169;28;19921;-60
2022/08/15 12:58:34;;;;;;;;;;;;;;;27.57;nan;100351.97;5051927;28;19956;-60
2022/08/15 13:01:00;;;;;;;;;;;;;;;27.49;nan;100354.69;5052905;28;20287;-59
2022/08/15 13:03:27;;;;;;;;;;;;;;;27.52;nan;100357.06;5052859;28;19909;-60
2022/08/15 13:05:56;;;;;;;;;;;;;;;27.67;nan;100358.88;5051959;28;19958;-60
2022/08/15 13:08:21;;;;;;;;;;;;;;;27.87;nan;100362.09;5053086;28;19964;-60
2022/08/15 13:10:46;;;;;;;;;;;;;;;28.01;nan;100360.50;5052941;28;20359;-61
2022/08/15 13:13:12;;;;;;;;;;;;;;;28.34;nan;100360.25;5052738;28;20265;-58
2022/08/15 13:15:37;;;;;;;;;;;;;;;28.69;nan;100361.66;5052980;28;20352;-60